Time;durP1;ratioP1;P1;durP2;ratioP2;P2;SDS_P1;SDS_P2;PMS_P1;PMS_P2;Temp;Humidity;BMP_temperature;BMP_pressure;BME280_temperature;BME280_humidity;BME280_pressure;Samples;Min_cycle;Max_cycle;Signal;HPM_P1;HPM_P2
2022/11/15 00:01:42;;;;;;;11.88;6.63;;;8.10;99.90;;;;;;4934256;28;20698;-72
2022/11/15 00:04:07;;;;;;;9.50;5.72;;;8.10;99.90;;;;;;4934637;28;20020;-72
2022/11/15 00:06:33;;;;;;;8.40;5.10;;;8.20;99.90;;;;;;4942857;28;20394;-73
2022/11/15 00:09:00;;;;;;;9.48;5.55;;;8.20;99.90;;;;;;4941410;29;20035;-72
2022/11/15 00:11:26;;;;;;;8.77;4.45;;;8.30;99.90;;;;;;4941637;29;20048;-72
2022/11/15 00:13:54;;;;;;;10.52;5.72;;;8.30;99.90;;;;;;4943716;28;20046;-73
2022/11/15 00:16:20;;;;;;;9.05;4.97;;;8.40;99.90;;;;;;4941701;29;20479;-72
2022/11/15 00:18:46;;;;;;;7.43;4.80;;;8.30;99.90;;;;;;4935755;29;20039;-72
2022/11/15 00:21:13;;;;;;;8.88;5.00;;;8.20;99.90;;;;;;4938082;29;20059;-73
2022/11/15 00:23:39;;;;;;;8.18;5.13;;;8.30;99.90;;;;;;4950044;28;20406;-72
2022/11/15 00:26:05;;;;;;;8.40;5.38;;;8.30;99.90;;;;;;4935481;28;20135;-73
2022/11/15 00:28:31;;;;;;;7.38;4.45;;;8.40;99.90;;;;;;4943913;28;20039;-72
2022/11/15 00:31:05;;;;;;;9.30;5.68;;;8.40;99.90;;;;;;4932441;29;20498;-72
2022/11/15 00:33:31;;;;;;;9.25;5.72;;;8.40;99.90;;;;;;4935585;28;20601;-73
2022/11/15 00:36:05;;;;;;;7.70;5.43;;;8.20;99.90;;;;;;4943885;28;20039;-73
2022/11/15 00:38:33;;;;;;;10.73;5.50;;;8.30;99.90;;;;;;4932735;29;20103;-73
2022/11/15 00:40:59;;;;;;;9.00;5.55;;;8.40;99.90;;;;;;4938125;29;20024;-72
2022/11/15 00:43:24;;;;;;;9.55;5.65;;;8.40;99.90;;;;;;4934008;28;20048;-72
2022/11/15 00:45:50;;;;;;;8.75;5.30;;;8.40;99.90;;;;;;4941898;28;20090;-73
2022/11/15 00:48:15;;;;;;;8.80;5.47;;;8.40;99.90;;;;;;4938728;29;20043;-72
2022/11/15 00:50:41;;;;;;;8.35;5.63;;;8.40;99.90;;;;;;4941933;28;20038;-72
2022/11/15 00:53:07;;;;;;;8.40;4.90;;;8.40;99.90;;;;;;4939510;28;20118;-73
2022/11/15 00:55:32;;;;;;;8.55;5.90;;;8.40;99.90;;;;;;4950684;28;20043;-72
2022/11/15 00:57:58;;;;;;;8.35;4.65;;;8.40;99.90;;;;;;4933320;28;20046;-72
2022/11/15 01:00:23;;;;;;;9.02;5.82;;;8.40;99.90;;;;;;4932271;29;20031;-72
2022/11/15 01:02:49;;;;;;;9.57;5.40;;;8.50;99.90;;;;;;4945355;28;20039;-72
2022/11/15 01:05:15;;;;;;;9.05;5.68;;;8.40;99.90;;;;;;4936785;28;20048;-72
2022/11/15 01:07:40;;;;;;;9.77;5.78;;;8.40;99.90;;;;;;4941090;29;20111;-73
2022/11/15 01:10:07;;;;;;;7.28;4.93;;;8.50;99.90;;;;;;4948946;28;20042;-72
2022/11/15 01:12:32;;;;;;;9.23;5.60;;;8.60;99.90;;;;;;4942581;28;23456;-72
2022/11/15 01:14:58;;;;;;;8.48;5.10;;;8.50;99.90;;;;;;4939317;28;20053;-73
2022/11/15 01:17:24;;;;;;;9.48;6.07;;;8.50;99.90;;;;;;4941301;29;20488;-72
2022/11/15 01:19:50;;;;;;;8.50;5.47;;;8.50;99.90;;;;;;4942221;29;20038;-72
2022/11/15 01:22:15;;;;;;;8.35;5.65;;;8.50;99.90;;;;;;4941752;28;20028;-73
2022/11/15 01:24:41;;;;;;;10.50;5.97;;;8.40;99.90;;;;;;4947615;28;20038;-72
2022/11/15 01:27:07;;;;;;;8.27;5.05;;;8.20;99.90;;;;;;4932502;28;20470;-73
2022/11/15 01:29:33;;;;;;;8.75;5.60;;;8.30;99.90;;;;;;4938866;29;20118;-72
2022/11/15 01:31:58;;;;;;;8.30;5.70;;;8.30;99.90;;;;;;4937859;29;20621;-72
2022/11/15 01:34:24;;;;;;;8.77;5.40;;;8.20;99.90;;;;;;4936318;28;20066;-72
2022/11/15 01:36:50;;;;;;;11.95;6.57;;;8.20;99.90;;;;;;4941063;28;20391;-73
2022/11/15 01:39:16;;;;;;;11.20;5.00;;;8.10;99.90;;;;;;4941775;28;20036;-72
2022/11/15 01:41:42;;;;;;;9.13;5.68;;;7.90;99.90;;;;;;4940436;29;20027;-74
2022/11/15 01:44:42;;;;;;;9.60;5.93;;;7.90;99.90;;;;;;4951533;28;20027;-73
2022/11/15 01:47:15;;;;;;;9.00;4.75;;;7.90;99.90;;;;;;4934890;29;20031;-72
2022/11/15 01:49:53;;;;;;;8.48;4.47;;;8.00;99.90;;;;;;4944689;28;20034;-72
2022/11/15 01:52:22;;;;;;;9.68;4.93;;;8.00;99.90;;;;;;4933534;29;20031;-73
2022/11/15 01:55:01;;;;;;;9.25;4.88;;;7.90;99.90;;;;;;4945818;28;20070;-72
2022/11/15 01:57:26;;;;;;;7.53;4.18;;;7.90;99.90;;;;;;4930709;28;20106;-72
2022/11/15 01:59:52;;;;;;;8.70;5.22;;;8.00;99.90;;;;;;4936367;29;20507;-72
2022/11/15 02:02:18;;;;;;;10.10;5.95;;;7.80;99.90;;;;;;4933570;29;20035;-73
2022/11/15 02:04:47;;;;;;;8.85;4.97;;;7.70;99.90;;;;;;4942117;28;20490;-72
2022/11/15 02:07:16;;;;;;;8.75;5.38;;;7.70;99.90;;;;;;4940098;28;20130;-72
2022/11/15 02:09:43;;;;;;;8.52;5.20;;;7.50;99.90;;;;;;4944622;29;20035;-72
2022/11/15 02:12:10;;;;;;;9.02;5.07;;;7.40;99.90;;;;;;4943696;28;20078;-72
2022/11/15 02:14:39;;;;;;;9.40;4.88;;;7.40;99.90;;;;;;4944887;28;20039;-72
2022/11/15 02:17:24;;;;;;;7.25;4.35;;;7.40;99.90;;;;;;4937580;28;20618;-72
2022/11/15 02:20:10;;;;;;;;;;;7.40;99.90;;;;;;4940371;28;20027;-72
2022/11/15 02:22:59;;;;;;;11.85;5.43;;;7.40;99.90;;;;;;4940133;29;20937;-72
2022/11/15 02:25:49;;;;;;;8.10;5.32;;;7.40;99.90;;;;;;4937623;28;20028;-72
2022/11/15 02:28:45;;;;;;;7.60;4.70;;;7.40;99.90;;;;;;4945489;29;20046;-73
2022/11/15 02:31:13;;;;;;;8.23;5.07;;;7.40;99.90;;;;;;4949641;29;20110;-72
2022/11/15 02:33:43;;;;;;;8.35;5.55;;;7.60;99.90;;;;;;4939816;28;20047;-72
2022/11/15 02:36:40;;;;;;;9.25;4.35;;;7.50;99.90;;;;;;4940048;28;20035;-72
2022/11/15 02:39:31;;;;;;;8.10;5.03;;;7.30;99.90;;;;;;4941478;29;20127;-72
2022/11/15 02:45:01;;;;;;;7.90;4.88;;;7.30;99.90;;;;;;4939458;28;20130;-72
2022/11/15 02:47:32;;;;;;;8.10;4.78;;;7.30;99.90;;;;;;4930579;29;20063;-72
2022/11/15 02:50:07;;;;;;;8.98;5.57;;;7.30;99.90;;;;;;4945348;29;20078;-72
2022/11/15 02:52:33;;;;;;;7.72;4.30;;;7.30;99.90;;;;;;4942501;28;20023;-72
2022/11/15 02:55:01;;;;;;;6.93;4.45;;;7.30;99.90;;;;;;4940357;28;20418;-72
2022/11/15 02:57:42;;;;;;;7.55;4.22;;;7.20;99.90;;;;;;4943056;28;20441;-72
2022/11/15 03:00:11;;;;;;;6.70;3.97;;;7.20;99.90;;;;;;4940577;28;20052;-72
2022/11/15 03:03:02;;;;;;;8.18;4.47;;;7.10;99.90;;;;;;4942309;28;20039;-72
2022/11/15 03:06:18;;;;;;;8.15;4.18;;;7.00;99.90;;;;;;4943696;28;20038;-72
2022/11/15 03:09:09;;;;;;;6.80;3.88;;;7.00;99.90;;;;;;4947284;29;20087;-72
2022/11/15 03:11:40;;;;;;;7.00;4.07;;;6.90;99.90;;;;;;4941429;29;20638;-72
2022/11/15 03:14:26;;;;;;;10.00;4.15;;;6.90;99.90;;;;;;4947905;28;20121;-72
2022/11/15 03:17:12;;;;;;;7.10;4.40;;;6.90;99.90;;;;;;4941853;29;20027;-72
2022/11/15 03:19:49;;;;;;;5.93;3.80;;;6.90;99.90;;;;;;4946807;29;20442;-72
2022/11/15 03:22:18;;;;;;;6.18;4.00;;;6.70;99.90;;;;;;4941639;29;20032;-72
2022/11/15 03:24:47;;;;;;;6.00;3.65;;;6.70;99.90;;;;;;4946010;28;20035;-72
2022/11/15 03:27:15;;;;;;;6.25;3.60;;;6.50;99.90;;;;;;4942534;28;20382;-72
2022/11/15 03:29:46;;;;;;;8.05;4.13;;;6.50;99.90;;;;;;4942249;29;20044;-72
2022/11/15 03:32:17;;;;;;;6.55;4.10;;;6.50;99.90;;;;;;4942181;29;20178;-72
2022/11/15 03:34:55;;;;;;;8.05;3.97;;;6.60;99.90;;;;;;4944431;28;20054;-72
2022/11/15 03:37:26;;;;;;;7.28;4.70;;;6.90;99.90;;;;;;4945111;28;20041;-73
2022/11/15 03:39:52;;;;;;;8.45;4.88;;;7.10;99.90;;;;;;4946803;28;20402;-73
2022/11/15 03:42:22;;;;;;;7.65;4.40;;;7.30;99.90;;;;;;4945439;28;20028;-73
2022/11/15 03:45:14;;;;;;;7.13;4.10;;;7.30;99.90;;;;;;4944831;28;20110;-73
2022/11/15 03:47:48;;;;;;;8.05;4.60;;;7.30;99.90;;;;;;4938527;29;20122;-73
2022/11/15 03:50:20;;;;;;;6.70;4.57;;;7.30;99.90;;;;;;4943714;28;20054;-73
2022/11/15 03:52:48;;;;;;;7.57;4.65;;;7.30;99.90;;;;;;4946915;28;20027;-73
2022/11/15 03:55:17;;;;;;;6.47;3.47;;;7.20;99.90;;;;;;4940797;29;20027;-72
2022/11/15 03:57:43;;;;;;;6.57;3.75;;;6.80;99.90;;;;;;4941794;28;20093;-73
2022/11/15 04:00:09;;;;;;;7.40;3.88;;;6.60;99.90;;;;;;4940282;29;20059;-72
2022/11/15 04:02:35;;;;;;;7.45;4.15;;;6.50;99.90;;;;;;4937690;29;20055;-72
2022/11/15 04:05:00;;;;;;;7.78;3.40;;;6.30;99.90;;;;;;4945154;28;20031;-72
2022/11/15 04:07:26;;;;;;;5.55;3.20;;;6.30;99.90;;;;;;4934052;29;20035;-72
2022/11/15 04:10:05;;;;;;;4.93;2.83;;;6.10;99.90;;;;;;4946648;29;20434;-72
2022/11/15 04:12:40;;;;;;;8.30;4.70;;;6.10;99.90;;;;;;4935582;29;20589;-72
2022/11/15 04:15:11;;;;;;;5.32;3.08;;;6.00;99.90;;;;;;4935901;28;20122;-71
2022/11/15 04:17:56;;;;;;;6.72;3.63;;;6.20;99.90;;;;;;4939725;29;20032;-72
2022/11/15 04:26:06;;;;;;;7.95;3.55;;;6.10;99.90;;;;;;4937964;29;20050;-72
2022/11/15 04:28:33;;;;;;;9.05;3.95;;;6.20;99.90;;;;;;4938903;28;20039;-73
2022/11/15 04:30:58;;;;;;;7.97;3.45;;;6.30;99.90;;;;;;4948282;28;20462;-72
2022/11/15 04:33:24;;;;;;;7.88;4.25;;;6.20;99.90;;;;;;4933996;28;20051;-72
2022/11/15 04:38:35;;;;;;;6.57;3.75;;;6.00;99.90;;;;;;4931797;29;20039;-72
2022/11/15 04:41:01;;;;;;;8.30;3.60;;;6.00;99.90;;;;;;4948976;28;20093;-72
2022/11/15 04:43:27;;;;;;;6.45;3.97;;;6.20;99.90;;;;;;4937734;28;20052;-72
2022/11/15 04:45:53;;;;;;;8.55;4.47;;;6.30;99.90;;;;;;4935767;29;20613;-72
2022/11/15 04:48:18;;;;;;;6.45;3.88;;;6.30;99.90;;;;;;4932770;29;20107;-72
2022/11/15 04:50:44;;;;;;;7.55;4.55;;;6.20;99.90;;;;;;4936359;28;20166;-72
2022/11/15 04:53:09;;;;;;;9.02;4.32;;;6.30;99.90;;;;;;4933567;28;20434;-72
2022/11/15 04:55:35;;;;;;;7.97;4.18;;;6.40;99.90;;;;;;4938489;29;20036;-72
2022/11/15 04:58:02;;;;;;;6.45;4.22;;;6.50;99.90;;;;;;4938353;28;20028;-72
2022/11/15 05:00:30;;;;;;;6.60;4.10;;;6.70;99.90;;;;;;4936883;29;20050;-72
2022/11/15 05:05:41;;;;;;;8.68;5.47;;;6.60;99.90;;;;;;4934407;29;20054;-72
2022/11/15 05:08:07;;;;;;;6.97;4.03;;;6.50;99.90;;;;;;4928751;29;20118;-71
2022/11/15 05:10:32;;;;;;;5.90;3.97;;;6.50;99.90;;;;;;4928722;29;20150;-72
2022/11/15 05:12:58;;;;;;;7.88;3.65;;;6.70;99.90;;;;;;4943019;28;20043;-72
2022/11/15 05:15:24;;;;;;;5.30;3.17;;;6.70;99.90;;;;;;4939284;29;20032;-72
2022/11/15 05:17:49;;;;;;;5.57;2.90;;;6.40;99.90;;;;;;4936427;28;20465;-72
2022/11/15 05:20:15;;;;;;;6.32;3.35;;;6.20;99.90;;;;;;4937934;29;20068;-72
2022/11/15 05:22:40;;;;;;;6.25;3.38;;;6.20;99.90;;;;;;4930806;28;20157;-71
2022/11/15 05:25:07;;;;;;;6.07;3.50;;;6.20;99.90;;;;;;4940379;28;20031;-72
2022/11/15 05:27:34;;;;;;;6.50;3.90;;;6.20;99.90;;;;;;4943959;29;20028;-71
2022/11/15 05:29:59;;;;;;;9.95;4.05;;;6.30;99.90;;;;;;4934922;29;20035;-72
2022/11/15 05:32:25;;;;;;;5.03;2.78;;;6.20;99.90;;;;;;4934762;28;20041;-71
2022/11/15 05:34:52;;;;;;;6.15;3.17;;;6.00;99.90;;;;;;4945998;28;20035;-72
2022/11/15 05:37:18;;;;;;;4.78;2.65;;;6.10;99.90;;;;;;4935766;29;20545;-71
2022/11/15 05:39:43;;;;;;;7.47;3.85;;;6.20;99.90;;;;;;4929237;29;20040;-72
2022/11/15 05:42:16;;;;;;;5.90;3.25;;;6.30;99.90;;;;;;4927803;29;20054;-72
2022/11/15 05:44:46;;;;;;;7.25;3.50;;;6.10;99.90;;;;;;4938266;28;20670;-72
2022/11/15 05:47:17;;;;;;;6.13;3.60;;;6.00;99.90;;;;;;4941305;28;20020;-72
2022/11/15 05:49:45;;;;;;;6.68;3.75;;;5.90;99.90;;;;;;4933763;29;20384;-71
2022/11/15 05:52:14;;;;;;;6.82;4.00;;;6.00;99.90;;;;;;4938833;28;20070;-72
2022/11/15 05:54:40;;;;;;;7.00;3.30;;;6.00;99.90;;;;;;4935579;28;20609;-74
2022/11/15 05:57:06;;;;;;;5.43;2.95;;;6.00;99.90;;;;;;4930829;28;20037;-74
2022/11/15 05:59:33;;;;;;;5.07;3.03;;;6.00;99.90;;;;;;4927845;29;20118;-75
2022/11/15 06:01:59;;;;;;;6.93;3.70;;;5.90;99.90;;;;;;4945527;28;20032;-72
2022/11/15 06:04:25;;;;;;;17.25;9.63;;;6.00;99.90;;;;;;4942763;28;20379;-71
2022/11/15 06:06:50;;;;;;;36.88;21.83;;;6.00;99.90;;;;;;4933234;29;20112;-72
2022/11/15 06:09:16;;;;;;;15.70;9.50;;;6.00;99.90;;;;;;4940279;28;20035;-72
2022/11/15 06:11:41;;;;;;;8.30;4.90;;;6.00;99.90;;;;;;4931342;28;20035;-72
2022/11/15 06:14:07;;;;;;;7.93;4.60;;;5.90;99.90;;;;;;4929154;29;20032;-72
2022/11/15 06:16:33;;;;;;;7.18;4.15;;;6.00;99.90;;;;;;4942572;28;20031;-72
2022/11/15 06:18:58;;;;;;;7.38;3.42;;;6.10;99.90;;;;;;4933769;29;20111;-71
2022/11/15 06:21:24;;;;;;;7.05;4.13;;;5.90;99.90;;;;;;4934306;28;20030;-72
2022/11/15 06:23:50;;;;;;;7.07;3.25;;;5.80;99.90;;;;;;4934756;29;20098;-70
2022/11/15 06:26:15;;;;;;;5.30;3.00;;;6.10;99.90;;;;;;4930489;29;20035;-71
2022/11/15 06:28:41;;;;;;;5.97;3.40;;;6.10;99.90;;;;;;4940146;28;20039;-71
2022/11/15 06:31:09;;;;;;;6.43;3.40;;;6.00;99.90;;;;;;4941200;29;20027;-71
2022/11/15 06:33:34;;;;;;;6.50;3.65;;;6.00;99.90;;;;;;4939310;29;20445;-71
2022/11/15 06:36:05;;;;;;;8.48;3.67;;;6.10;99.90;;;;;;4933579;29;20031;-71
2022/11/15 06:38:31;;;;;;;7.25;3.55;;;6.10;99.90;;;;;;4946716;28;20036;-71
2022/11/15 06:41:08;;;;;;;7.07;3.83;;;6.10;99.90;;;;;;4943050;28;20055;-71
2022/11/15 06:43:35;;;;;;;6.88;4.18;;;6.20;99.90;;;;;;4939558;29;20058;-72
2022/11/15 06:46:02;;;;;;;5.05;3.33;;;6.10;99.90;;;;;;4936444;29;20388;-71
2022/11/15 06:48:29;;;;;;;7.45;3.42;;;6.10;99.90;;;;;;4942563;28;20083;-71
2022/11/15 06:50:57;;;;;;;7.70;3.90;;;6.10;99.90;;;;;;4938779;28;20034;-72
2022/11/15 06:53:23;;;;;;;5.78;3.33;;;6.00;99.90;;;;;;4937160;29;20035;-71
2022/11/15 06:55:49;;;;;;;5.60;3.17;;;5.80;99.90;;;;;;4935202;28;20039;-71
2022/11/15 06:58:15;;;;;;;6.65;3.15;;;5.90;99.90;;;;;;4938588;29;20059;-71
2022/11/15 07:00:41;;;;;;;5.88;3.40;;;6.00;99.90;;;;;;4938321;29;20049;-71
2022/11/15 07:03:07;;;;;;;6.97;3.17;;;6.20;99.90;;;;;;4937754;28;20032;-71
2022/11/15 07:05:33;;;;;;;6.03;3.70;;;6.40;99.90;;;;;;4944067;29;20545;-71
2022/11/15 07:07:59;;;;;;;6.40;3.75;;;6.50;99.90;;;;;;4945972;29;20035;-71
2022/11/15 07:10:25;;;;;;;5.95;3.38;;;6.40;99.90;;;;;;4941078;29;20514;-71
2022/11/15 07:12:55;;;;;;;5.40;3.53;;;6.30;99.90;;;;;;4949823;29;20028;-72
2022/11/15 07:15:23;;;;;;;5.57;2.95;;;6.30;99.90;;;;;;4935029;28;20032;-72
2022/11/15 07:17:49;;;;;;;5.43;2.63;;;6.30;99.90;;;;;;4936704;28;20023;-73
2022/11/15 07:20:15;;;;;;;6.53;3.75;;;6.30;99.90;;;;;;4941416;28;20030;-73
2022/11/15 07:22:42;;;;;;;5.57;3.55;;;6.40;99.90;;;;;;4936765;28;20046;-73
2022/11/15 07:25:09;;;;;;;7.10;3.50;;;6.40;99.90;;;;;;4937651;28;20126;-73
2022/11/15 07:27:35;;;;;;;5.10;2.90;;;6.60;99.90;;;;;;4939096;28;20046;-73
2022/11/15 07:30:00;;;;;;;7.68;3.10;;;6.60;99.90;;;;;;4933084;28;20133;-73
2022/11/15 07:32:26;;;;;;;5.40;3.00;;;6.60;99.90;;;;;;4931519;28;20174;-73
2022/11/15 07:34:52;;;;;;;5.93;3.67;;;6.60;99.90;;;;;;4931305;29;20484;-73
2022/11/15 07:37:18;;;;;;;6.80;3.40;;;6.50;99.90;;;;;;4942395;29;20035;-73
2022/11/15 07:39:44;;;;;;;6.80;3.33;;;6.50;99.90;;;;;;4939873;28;20039;-73
2022/11/15 07:44:54;;;;;;;6.35;3.92;;;6.30;99.90;;;;;;4933095;28;20151;-73
2022/11/15 07:47:20;;;;;;;6.35;4.00;;;6.30;99.90;;;;;;4932159;28;20114;-73
2022/11/15 07:49:46;;;;;;;6.68;3.58;;;6.30;99.90;;;;;;4929070;29;20031;-73
2022/11/15 07:52:13;;;;;;;5.43;3.08;;;6.30;99.90;;;;;;4932284;29;20057;-73
2022/11/15 07:54:39;;;;;;;5.93;3.25;;;6.40;99.90;;;;;;4930713;28;20043;-73
2022/11/15 07:57:06;;;;;;;8.32;4.13;;;6.70;99.90;;;;;;4939092;28;20027;-73
2022/11/15 07:59:32;;;;;;;10.70;4.93;;;6.70;99.90;;;;;;4932054;29;20549;-73
2022/11/15 08:01:58;;;;;;;7.13;4.88;;;6.60;99.90;;;;;;4936392;28;20036;-73
2022/11/15 08:04:24;;;;;;;7.03;3.60;;;6.50;99.90;;;;;;4932061;28;20229;-71
2022/11/15 08:06:49;;;;;;;6.85;4.38;;;6.60;99.90;;;;;;4932561;28;20036;-72
2022/11/15 08:09:15;;;;;;;8.70;4.47;;;6.50;99.90;;;;;;4932159;28;20089;-73
2022/11/15 08:11:41;;;;;;;6.63;4.20;;;6.80;99.90;;;;;;4929438;28;20031;-73
2022/11/15 08:14:06;;;;;;;5.55;3.28;;;6.50;99.90;;;;;;4937321;28;20039;-74
2022/11/15 08:16:32;;;;;;;8.50;4.53;;;6.60;99.90;;;;;;4936247;28;20043;-74
2022/11/15 08:18:58;;;;;;;6.80;4.18;;;6.60;99.90;;;;;;4933858;28;20031;-75
2022/11/15 08:21:24;;;;;;;7.35;3.90;;;6.60;99.90;;;;;;4933274;29;20122;-75
2022/11/15 08:23:49;;;;;;;12.48;4.97;;;6.60;99.90;;;;;;4938820;28;20106;-74
2022/11/15 08:26:15;;;;;;;6.57;3.70;;;6.60;99.90;;;;;;4928929;28;20032;-74
2022/11/15 08:28:41;;;;;;;5.68;3.33;;;6.70;99.90;;;;;;4927814;29;20703;-73
2022/11/15 08:31:06;;;;;;;6.03;3.40;;;6.90;99.90;;;;;;4929977;29;20058;-74
2022/11/15 08:33:32;;;;;;;6.28;2.70;;;7.10;99.90;;;;;;4933565;29;20039;-74
2022/11/15 08:36:01;;;;;;;5.05;3.00;;;7.20;99.90;;;;;;4930890;28;20107;-74
2022/11/15 08:38:30;;;;;;;5.30;3.33;;;7.30;99.90;;;;;;4942867;28;20086;-75
2022/11/15 08:41:05;;;;;;;8.80;4.30;;;7.30;99.90;;;;;;4935043;29;20031;-75
2022/11/15 08:43:31;;;;;;;8.18;4.90;;;7.20;99.90;;;;;;4929780;28;20588;-74
2022/11/15 08:45:58;;;;;;;6.75;4.63;;;7.00;99.90;;;;;;4935232;28;20047;-74
2022/11/15 08:48:24;;;;;;;6.43;4.15;;;7.10;99.90;;;;;;4938024;29;20046;-74
2022/11/15 08:50:55;;;;;;;9.73;4.57;;;7.20;99.90;;;;;;4936153;28;20035;-74
2022/11/15 08:53:22;;;;;;;8.88;4.35;;;7.30;99.90;;;;;;4943517;28;20418;-74
2022/11/15 08:55:47;;;;;;;6.47;3.53;;;7.30;99.90;;;;;;4934864;28;20045;-74
2022/11/15 08:58:13;;;;;;;9.40;6.43;;;7.40;99.90;;;;;;4937411;28;20744;-74
2022/11/15 09:00:39;;;;;;;7.32;3.97;;;7.70;99.90;;;;;;4932191;29;20066;-74
2022/11/15 09:03:06;;;;;;;5.53;3.55;;;7.70;99.90;;;;;;4934968;28;20027;-74
2022/11/15 09:05:32;;;;;;;4.93;3.03;;;7.70;99.90;;;;;;4936808;29;20063;-73
2022/11/15 09:07:57;;;;;;;5.75;3.83;;;7.90;99.90;;;;;;4924546;29;20035;-73
2022/11/15 09:10:24;;;;;;;6.35;4.50;;;7.90;99.90;;;;;;4929962;29;20027;-73
2022/11/15 09:12:50;;;;;;;7.43;5.40;;;7.90;99.90;;;;;;4932967;28;20033;-73
2022/11/15 09:15:16;;;;;;;9.70;4.20;;;8.00;99.90;;;;;;4929520;29;20027;-72
2022/11/15 09:17:42;;;;;;;8.50;4.63;;;7.80;99.90;;;;;;4935896;28;20512;-73
2022/11/15 09:20:08;;;;;;;7.80;4.07;;;7.80;99.90;;;;;;4928372;29;20027;-73
2022/11/15 09:22:34;;;;;;;7.32;3.97;;;7.90;99.90;;;;;;4942970;28;20035;-73
2022/11/15 09:25:00;;;;;;;6.13;3.42;;;7.80;99.90;;;;;;4935926;28;20026;-73
2022/11/15 09:27:30;;;;;;;7.05;3.97;;;7.80;99.90;;;;;;4939112;28;20513;-73
2022/11/15 09:29:55;;;;;;;8.55;4.22;;;7.90;99.90;;;;;;4938809;29;20082;-73
2022/11/15 09:32:24;;;;;;;7.20;3.83;;;7.90;99.90;;;;;;4924565;28;20039;-75
2022/11/15 09:34:50;;;;;;;6.13;3.20;;;7.90;99.90;;;;;;4931588;28;20039;-75
2022/11/15 09:37:16;;;;;;;5.75;3.15;;;8.20;99.90;;;;;;4926108;29;20082;-73
2022/11/15 09:39:42;;;;;;;5.57;3.22;;;8.20;99.90;;;;;;4924764;28;20028;-74
2022/11/15 09:42:31;;;;;;;5.43;3.17;;;8.10;99.90;;;;;;4932080;29;20110;-73
2022/11/15 09:45:18;;;;;;;5.75;2.72;;;8.20;99.90;;;;;;4953859;28;20751;-73
2022/11/15 09:48:23;;;;;;;9.52;3.50;;;8.20;99.90;;;;;;4931928;29;20039;-74
2022/11/15 09:50:50;;;;;;;7.45;3.45;;;8.30;99.90;;;;;;4928536;28;20652;-74
2022/11/15 09:53:26;;;;;;;6.28;3.10;;;8.30;99.90;;;;;;4937405;29;20102;-73
2022/11/15 09:56:09;;;;;;;6.82;3.45;;;8.30;99.90;;;;;;4933879;29;20130;-74
2022/11/15 09:59:12;;;;;;;4.88;2.83;;;8.40;99.90;;;;;;4932918;28;20069;-74
2022/11/15 10:02:03;;;;;;;6.38;3.58;;;8.40;99.90;;;;;;4925467;29;20063;-74
2022/11/15 10:04:30;;;;;;;6.90;3.10;;;8.50;99.90;;;;;;4928513;28;20040;-75
2022/11/15 10:07:15;;;;;;;5.20;3.22;;;8.70;99.90;;;;;;4944729;28;20039;-73
2022/11/15 10:10:03;;;;;;;5.50;3.17;;;8.70;99.90;;;;;;4935711;29;20047;-74
2022/11/15 10:12:29;;;;;;;5.78;3.22;;;8.90;99.90;;;;;;4935951;29;20038;-73
2022/11/15 10:15:10;;;;;;;7.10;4.18;;;8.90;99.90;;;;;;4937421;28;20123;-73
2022/11/15 10:17:36;;;;;;;9.77;4.28;;;9.00;99.90;;;;;;4944761;28;20034;-75
2022/11/15 10:20:11;;;;;;;5.30;3.03;;;9.00;99.90;;;;;;4952438;28;20031;-74
2022/11/15 10:22:50;;;;;;;6.57;4.28;;;8.90;99.90;;;;;;4938594;28;20036;-73
2022/11/15 10:25:31;;;;;;;6.65;4.00;;;8.90;99.90;;;;;;4931339;28;20043;-74
2022/11/15 10:28:05;;;;;;;9.10;3.97;;;8.90;99.90;;;;;;4940247;28;20469;-73
2022/11/15 10:30:34;;;;;;;7.13;4.22;;;8.90;99.90;;;;;;4937795;28;20031;-74
2022/11/15 10:33:17;;;;;;;13.95;9.40;;;9.00;99.90;;;;;;4938567;28;20035;-74
2022/11/15 10:35:43;;;;;;;6.95;4.90;;;9.10;99.90;;;;;;4935713;29;20027;-73
2022/11/15 10:38:10;;;;;;;6.68;4.07;;;9.10;99.90;;;;;;4935606;28;20495;-74
2022/11/15 10:40:37;;;;;;;7.15;4.13;;;9.20;99.90;;;;;;4933120;29;20031;-74
2022/11/15 10:43:15;;;;;;;7.45;3.75;;;9.30;99.90;;;;;;4937559;28;20028;-74
2022/11/15 10:45:40;;;;;;;8.38;3.15;;;9.30;99.90;;;;;;4928436;29;20483;-74
2022/11/15 10:48:12;;;;;;;5.97;3.58;;;9.40;99.90;;;;;;4933285;28;20041;-74
2022/11/15 10:50:40;;;;;;;7.00;4.13;;;9.30;99.90;;;;;;4939937;28;20047;-73
2022/11/15 10:53:32;;;;;;;9.57;4.47;;;9.20;99.90;;;;;;4935120;29;20103;-74
2022/11/15 10:56:06;;;;;;;7.50;4.00;;;9.30;99.90;;;;;;4937221;28;20035;-74
2022/11/15 10:59:03;;;;;;;6.70;3.50;;;9.40;99.90;;;;;;4943428;29;20697;-74
2022/11/15 11:01:29;;;;;;;8.07;4.80;;;9.40;99.90;;;;;;4935504;28;20063;-73
2022/11/15 11:04:06;;;;;;;7.57;4.63;;;9.50;99.90;;;;;;4933443;29;20038;-74
2022/11/15 11:06:50;;;;;;;8.23;4.50;;;9.70;99.90;;;;;;4941305;29;20033;-73
2022/11/15 11:09:37;;;;;;;6.45;4.30;;;9.70;99.90;;;;;;4937719;28;20611;-73
2022/11/15 11:12:05;;;;;;;5.60;3.60;;;9.70;99.90;;;;;;4937038;29;20470;-73
2022/11/15 11:14:34;;;;;;;6.95;4.32;;;9.70;99.90;;;;;;4936097;28;20088;-73
2022/11/15 11:17:02;;;;;;;9.18;4.80;;;9.70;99.90;;;;;;4939292;28;20070;-73
2022/11/15 11:19:33;;;;;;;7.25;3.97;;;9.70;99.90;;;;;;4938957;29;20090;-73
2022/11/15 11:22:15;;;;;;;7.90;4.20;;;9.80;99.90;;;;;;4945088;28;20471;-73
2022/11/15 11:25:17;;;;;;;6.93;3.85;;;9.70;99.90;;;;;;4931097;28;20429;-73
2022/11/15 11:27:55;;;;;;;8.68;3.85;;;9.70;99.90;;;;;;4939478;28;20031;-73
2022/11/15 11:30:55;;;;;;;7.32;3.95;;;9.70;99.90;;;;;;4933136;28;20031;-73
2022/11/15 11:33:24;;;;;;;7.55;4.63;;;9.70;99.90;;;;;;4935210;28;20055;-73
2022/11/15 11:36:19;;;;;;;7.28;4.30;;;9.70;99.90;;;;;;4938223;29;20041;-73
2022/11/15 11:39:19;;;;;;;7.43;4.63;;;9.70;99.90;;;;;;4938223;28;20382;-73
2022/11/15 11:42:16;;;;;;;10.93;4.80;;;9.70;99.90;;;;;;4935013;29;20027;-73
2022/11/15 11:45:10;;;;;;;10.50;5.40;;;9.70;99.90;;;;;;4940431;28;20091;-73
2022/11/15 11:47:44;;;;;;;8.52;4.50;;;9.70;99.90;;;;;;4926485;29;20036;-73
2022/11/15 11:50:14;;;;;;;8.65;4.53;;;9.90;99.90;;;;;;4933217;29;20075;-73
2022/11/15 11:53:06;;;;;;;12.23;5.30;;;9.90;99.90;;;;;;4925405;29;20521;-73
2022/11/15 11:55:53;;;;;;;9.35;4.40;;;9.70;99.90;;;;;;4933200;29;20039;-73
2022/11/15 11:58:40;;;;;;;8.02;4.78;;;9.80;99.90;;;;;;4936605;28;20532;-73
2022/11/15 12:01:43;;;;;;;6.95;4.45;;;9.80;99.90;;;;;;4932650;29;20035;-72
2022/11/15 12:04:29;;;;;;;7.97;4.65;;;9.80;99.90;;;;;;4936406;28;20379;-73
2022/11/15 12:07:04;;;;;;;7.78;4.28;;;9.80;99.90;;;;;;4932241;28;20059;-73
2022/11/15 12:09:51;;;;;;;7.82;4.50;;;9.70;99.90;;;;;;4942273;29;20047;-73
2022/11/15 12:12:32;;;;;;;10.00;3.97;;;9.70;99.90;;;;;;4928413;28;20106;-73
2022/11/15 12:15:09;;;;;;;6.93;4.35;;;9.70;99.90;;;;;;4929071;28;20442;-73
2022/11/15 12:17:36;;;;;;;9.35;5.03;;;9.80;99.90;;;;;;4937129;28;20969;-73
2022/11/15 12:20:16;;;;;;;9.65;4.50;;;9.90;99.90;;;;;;4931976;29;20055;-73
2022/11/15 12:22:44;;;;;;;7.18;4.68;;;9.90;99.90;;;;;;4932986;29;20859;-73
2022/11/15 12:25:28;;;;;;;10.25;4.63;;;9.90;99.90;;;;;;4934807;29;20038;-73
2022/11/15 12:27:57;;;;;;;8.40;4.43;;;9.90;99.90;;;;;;4925442;29;20028;-73
2022/11/15 12:30:25;;;;;;;7.47;4.43;;;9.80;99.90;;;;;;4935752;29;20038;-73
2022/11/15 12:33:01;;;;;;;8.32;5.25;;;9.90;99.90;;;;;;4942085;28;20378;-73
2022/11/15 12:35:35;;;;;;;9.23;4.95;;;9.90;99.90;;;;;;4925868;29;20167;-73
2022/11/15 12:38:01;;;;;;;9.48;4.30;;;9.80;99.90;;;;;;4928874;28;20085;-73
2022/11/15 12:40:28;;;;;;;6.60;3.72;;;9.80;99.90;;;;;;4940450;28;20043;-73
2022/11/15 12:43:12;;;;;;;6.60;3.97;;;9.80;99.90;;;;;;4933540;28;20118;-73
2022/11/15 12:45:40;;;;;;;6.28;4.22;;;9.70;99.90;;;;;;4935451;29;20035;-73
2022/11/15 12:48:15;;;;;;;6.28;3.92;;;9.70;99.90;;;;;;4932010;29;20075;-73
2022/11/15 12:50:53;;;;;;;6.53;3.58;;;9.70;99.90;;;;;;4934933;29;20035;-72
2022/11/15 12:53:25;;;;;;;6.78;4.20;;;9.80;99.90;;;;;;4932304;28;20038;-73
2022/11/15 12:56:17;;;;;;;7.03;4.10;;;9.70;99.90;;;;;;4928077;29;20028;-73
2022/11/15 12:58:56;;;;;;;7.88;3.75;;;9.70;99.90;;;;;;4941022;29;20054;-73
2022/11/15 13:01:30;;;;;;;6.43;4.00;;;9.70;99.90;;;;;;4938549;29;20041;-73
2022/11/15 13:04:24;;;;;;;8.23;4.07;;;9.70;99.90;;;;;;4939030;29;20601;-73
2022/11/15 13:06:54;;;;;;;6.82;3.65;;;9.90;99.90;;;;;;4929202;29;20391;-73
2022/11/15 13:09:32;;;;;;;11.02;7.40;;;9.90;99.90;;;;;;4930494;29;20027;-73
2022/11/15 13:12:08;;;;;;;8.80;5.35;;;9.90;99.90;;;;;;4943987;28;20379;-74
2022/11/15 13:14:36;;;;;;;8.63;4.70;;;10.00;99.90;;;;;;4932975;29;20479;-74
2022/11/15 13:17:12;;;;;;;8.55;4.65;;;9.90;99.90;;;;;;4926691;29;20023;-74
2022/11/15 13:19:38;;;;;;;23.33;15.65;;;10.00;99.90;;;;;;4925887;29;20040;-74
2022/11/15 13:24:52;;;;;;;10.70;5.30;;;10.00;99.90;;;;;;4932695;28;20045;-74
2022/11/15 13:27:19;;;;;;;9.38;3.90;;;9.90;99.90;;;;;;4931657;29;20020;-74
2022/11/15 13:29:45;;;;;;;7.30;4.32;;;9.80;99.90;;;;;;4923336;29;20067;-74
2022/11/15 13:32:15;;;;;;;8.00;5.05;;;9.90;99.90;;;;;;4938747;28;20051;-73
2022/11/15 13:34:46;;;;;;;7.03;4.43;;;9.80;99.90;;;;;;4937054;29;20044;-74
2022/11/15 13:37:33;;;;;;;7.68;4.85;;;9.80;99.90;;;;;;4937515;29;20058;-74